Stephenville, Texas
Current Conditions -  °F | °C
As of 4:15 PM on Sunday 23 Nov 2014 (Local Time) from KSEP Reporting Station
Clear Clear  
Wind Chill: 72°   Ceiling: Unl
Heat Index: 72°   Visibility: 10mi
Dew Point: 35°   Wind: 16mph
Humidity: 26%   Direction: 320°NW
Pressure: 29.54"   Gusts: 28mph
Location:  32.22°N, 98.2°W
Report Text: KSEP 232215Z AUTO 32014G24KT 10SM CLR 22/02 A2954 RMK AO2 T02220017
Loading
Personal Weather Stations






























Interactive Weather Map New forecast layout! Learn more

10-Day Weather Forecast

Advertisements
Track Severe Weather on mobile